Terminal Aerodrome Forecast
Issued by NWS St Louis, MO

Home | Current Version | Previous Version | Text Only | Print | Product List | Glossary On
Versions: 1 2 3 4 5 6 7 8 9 10 11 12 13 14 15 16
160
FTUS43 KLSX 141125
TAFCOU
TAF
KCOU 141125Z 1412/1512 11012G20KT 6SM -SNPL OVC040
     FM141400 13012KT 3SM -SN OVC020
     FM141700 17010KT 4SM -FZDZ OVC010
     FM142000 19009KT 6SM -DZ OVC015
     FM150000 16007KT P6SM OVC050=

USA.gov is the U.S. government's official web portal to all federal, state and local government web resources and services.